sensor_id;sensor_type;location;lat;lon;timestamp;P1;durP1;ratioP1;P2;durP2;ratioP2
52432;SDS011;38352;53.244;6.594;2023-08-21T00:00:18;4.68;;;2.33;;
52432;SDS011;38352;53.244;6.594;2023-08-21T00:02:44;8.07;;;2.60;;
52432;SDS011;38352;53.244;6.594;2023-08-21T00:05:10;6.40;;;2.42;;
52432;SDS011;38352;53.244;6.594;2023-08-21T00:07:36;9.10;;;2.90;;
52432;SDS011;38352;53.244;6.594;2023-08-21T00:10:03;4.90;;;2.40;;
52432;SDS011;38352;53.244;6.594;2023-08-21T00:12:29;6.28;;;2.47;;
52432;SDS011;38352;53.244;6.594;2023-08-21T00:14:55;5.55;;;3.25;;
52432;SDS011;38352;53.244;6.594;2023-08-21T00:17:21;4.93;;;2.25;;
52432;SDS011;38352;53.244;6.594;2023-08-21T00:19:47;8.07;;;3.03;;
52432;SDS011;38352;53.244;6.594;2023-08-21T00:22:13;6.05;;;3.25;;
52432;SDS011;38352;53.244;6.594;2023-08-21T00:24:39;7.50;;;2.88;;
52432;SDS011;38352;53.244;6.594;2023-08-21T00:27:05;5.85;;;2.45;;
52432;SDS011;38352;53.244;6.594;2023-08-21T00:29:31;4.32;;;2.05;;
52432;SDS011;38352;53.244;6.594;2023-08-21T00:31:57;8.35;;;2.83;;
52432;SDS011;38352;53.244;6.594;2023-08-21T00:34:24;6.18;;;3.00;;
52432;SDS011;38352;53.244;6.594;2023-08-21T00:36:50;6.75;;;2.45;;
52432;SDS011;38352;53.244;6.594;2023-08-21T00:39:16;6.22;;;2.55;;
52432;SDS011;38352;53.244;6.594;2023-08-21T00:41:42;7.03;;;2.80;;
52432;SDS011;38352;53.244;6.594;2023-08-21T00:44:08;7.38;;;2.72;;
52432;SDS011;38352;53.244;6.594;2023-08-21T00:46:34;6.40;;;2.75;;
52432;SDS011;38352;53.244;6.594;2023-08-21T00:49:00;7.53;;;2.42;;
52432;SDS011;38352;53.244;6.594;2023-08-21T00:51:27;6.25;;;2.40;;
52432;SDS011;38352;53.244;6.594;2023-08-21T00:53:53;7.22;;;2.80;;
52432;SDS011;38352;53.244;6.594;2023-08-21T00:56:20;6.75;;;2.85;;
52432;SDS011;38352;53.244;6.594;2023-08-21T00:58:46;7.10;;;2.58;;
52432;SDS011;38352;53.244;6.594;2023-08-21T01:01:12;4.88;;;2.63;;
52432;SDS011;38352;53.244;6.594;2023-08-21T01:03:40;3.83;;;2.22;;
52432;SDS011;38352;53.244;6.594;2023-08-21T01:06:07;6.40;;;3.15;;
52432;SDS011;38352;53.244;6.594;2023-08-21T01:08:48;6.68;;;2.58;;
52432;SDS011;38352;53.244;6.594;2023-08-21T01:11:21;5.47;;;2.60;;
52432;SDS011;38352;53.244;6.594;2023-08-21T01:13:56;7.87;;;3.43;;
52432;SDS011;38352;53.244;6.594;2023-08-21T01:16:25;6.53;;;2.90;;
52432;SDS011;38352;53.244;6.594;2023-08-21T01:18:51;8.88;;;2.97;;
52432;SDS011;38352;53.244;6.594;2023-08-21T01:21:19;7.90;;;3.00;;
52432;SDS011;38352;53.244;6.594;2023-08-21T01:23:45;3.92;;;2.30;;
52432;SDS011;38352;53.244;6.594;2023-08-21T01:26:12;4.65;;;2.83;;
52432;SDS011;38352;53.244;6.594;2023-08-21T01:28:38;5.07;;;2.17;;
52432;SDS011;38352;53.244;6.594;2023-08-21T01:31:47;9.25;;;2.80;;
52432;SDS011;38352;53.244;6.594;2023-08-21T01:33:54;6.20;;;2.88;;
52432;SDS011;38352;53.244;6.594;2023-08-21T01:36:22;8.27;;;3.08;;
52432;SDS011;38352;53.244;6.594;2023-08-21T01:38:49;6.18;;;3.13;;
52432;SDS011;38352;53.244;6.594;2023-08-21T01:41:15;6.07;;;2.90;;
52432;SDS011;38352;53.244;6.594;2023-08-21T01:43:41;8.52;;;3.47;;
52432;SDS011;38352;53.244;6.594;2023-08-21T01:46:07;8.73;;;3.08;;
52432;SDS011;38352;53.244;6.594;2023-08-21T01:48:34;9.75;;;3.60;;
52432;SDS011;38352;53.244;6.594;2023-08-21T01:51:00;5.38;;;2.95;;
52432;SDS011;38352;53.244;6.594;2023-08-21T01:53:26;7.22;;;2.65;;
52432;SDS011;38352;53.244;6.594;2023-08-21T01:55:52;8.93;;;2.88;;
52432;SDS011;38352;53.244;6.594;2023-08-21T01:58:18;7.68;;;3.20;;
52432;SDS011;38352;53.244;6.594;2023-08-21T02:00:47;5.15;;;2.80;;
52432;SDS011;38352;53.244;6.594;2023-08-21T02:03:14;7.03;;;3.33;;
52432;SDS011;38352;53.244;6.594;2023-08-21T02:05:40;6.28;;;2.88;;
52432;SDS011;38352;53.244;6.594;2023-08-21T02:08:06;5.30;;;3.13;;
52432;SDS011;38352;53.244;6.594;2023-08-21T02:10:33;6.78;;;2.72;;
52432;SDS011;38352;53.244;6.594;2023-08-21T02:12:59;4.30;;;2.53;;
52432;SDS011;38352;53.244;6.594;2023-08-21T02:15:25;5.82;;;2.83;;
52432;SDS011;38352;53.244;6.594;2023-08-21T02:17:51;8.20;;;3.60;;
52432;SDS011;38352;53.244;6.594;2023-08-21T02:20:17;7.05;;;3.10;;
52432;SDS011;38352;53.244;6.594;2023-08-21T02:22:43;7.13;;;3.03;;
52432;SDS011;38352;53.244;6.594;2023-08-21T02:25:09;5.93;;;2.88;;
52432;SDS011;38352;53.244;6.594;2023-08-21T02:27:35;5.32;;;2.90;;
52432;SDS011;38352;53.244;6.594;2023-08-21T02:30:01;5.65;;;3.00;;
52432;SDS011;38352;53.244;6.594;2023-08-21T02:32:28;7.03;;;2.97;;
52432;SDS011;38352;53.244;6.594;2023-08-21T02:34:54;6.32;;;2.97;;
52432;SDS011;38352;53.244;6.594;2023-08-21T02:37:20;8.32;;;3.30;;
52432;SDS011;38352;53.244;6.594;2023-08-21T02:39:46;7.35;;;3.35;;
52432;SDS011;38352;53.244;6.594;2023-08-21T02:42:12;7.93;;;2.92;;
52432;SDS011;38352;53.244;6.594;2023-08-21T02:44:38;7.55;;;3.10;;
52432;SDS011;38352;53.244;6.594;2023-08-21T02:47:04;6.72;;;3.08;;
52432;SDS011;38352;53.244;6.594;2023-08-21T02:49:31;7.70;;;3.00;;
52432;SDS011;38352;53.244;6.594;2023-08-21T02:51:57;5.38;;;2.80;;
52432;SDS011;38352;53.244;6.594;2023-08-21T02:54:23;6.78;;;3.30;;
52432;SDS011;38352;53.244;6.594;2023-08-21T02:56:49;6.82;;;3.13;;
52432;SDS011;38352;53.244;6.594;2023-08-21T02:59:15;5.55;;;2.75;;
52432;SDS011;38352;53.244;6.594;2023-08-21T03:01:42;6.90;;;3.00;;
52432;SDS011;38352;53.244;6.594;2023-08-21T03:04:08;6.15;;;2.67;;
52432;SDS011;38352;53.244;6.594;2023-08-21T03:06:34;6.50;;;3.00;;
52432;SDS011;38352;53.244;6.594;2023-08-21T03:09:00;5.03;;;2.75;;
52432;SDS011;38352;53.244;6.594;2023-08-21T03:11:26;9.20;;;3.40;;
52432;SDS011;38352;53.244;6.594;2023-08-21T03:13:52;7.55;;;2.70;;
52432;SDS011;38352;53.244;6.594;2023-08-21T03:16:21;7.28;;;2.95;;
52432;SDS011;38352;53.244;6.594;2023-08-21T03:18:57;9.45;;;3.20;;
52432;SDS011;38352;53.244;6.594;2023-08-21T03:21:24;5.50;;;2.85;;
52432;SDS011;38352;53.244;6.594;2023-08-21T03:23:56;7.32;;;3.10;;
52432;SDS011;38352;53.244;6.594;2023-08-21T03:26:23;9.00;;;2.83;;
52432;SDS011;38352;53.244;6.594;2023-08-21T03:28:49;6.22;;;2.55;;
52432;SDS011;38352;53.244;6.594;2023-08-21T03:31:15;5.05;;;2.40;;
52432;SDS011;38352;53.244;6.594;2023-08-21T03:33:42;5.65;;;2.25;;
52432;SDS011;38352;53.244;6.594;2023-08-21T03:36:08;6.93;;;2.97;;
52432;SDS011;38352;53.244;6.594;2023-08-21T03:38:34;7.30;;;2.40;;
52432;SDS011;38352;53.244;6.594;2023-08-21T03:41:00;6.50;;;2.70;;
52432;SDS011;38352;53.244;6.594;2023-08-21T03:43:26;7.10;;;2.72;;
52432;SDS011;38352;53.244;6.594;2023-08-21T03:45:52;5.90;;;2.53;;
52432;SDS011;38352;53.244;6.594;2023-08-21T03:48:18;5.55;;;2.80;;
52432;SDS011;38352;53.244;6.594;2023-08-21T03:50:44;5.03;;;2.50;;
52432;SDS011;38352;53.244;6.594;2023-08-21T03:53:10;5.72;;;2.72;;
52432;SDS011;38352;53.244;6.594;2023-08-21T03:55:36;8.15;;;2.78;;
52432;SDS011;38352;53.244;6.594;2023-08-21T03:58:02;5.38;;;2.42;;
52432;SDS011;38352;53.244;6.594;2023-08-21T04:00:29;5.75;;;2.42;;
52432;SDS011;38352;53.244;6.594;2023-08-21T04:02:56;4.95;;;2.42;;
52432;SDS011;38352;53.244;6.594;2023-08-21T04:05:22;5.32;;;2.65;;
52432;SDS011;38352;53.244;6.594;2023-08-21T04:07:48;5.50;;;2.53;;
52432;SDS011;38352;53.244;6.594;2023-08-21T04:10:14;5.70;;;2.65;;
52432;SDS011;38352;53.244;6.594;2023-08-21T04:12:41;4.93;;;2.30;;
52432;SDS011;38352;53.244;6.594;2023-08-21T04:15:08;4.70;;;2.78;;
52432;SDS011;38352;53.244;6.594;2023-08-21T04:17:34;7.30;;;2.70;;
52432;SDS011;38352;53.244;6.594;2023-08-21T04:20:00;8.70;;;3.30;;
52432;SDS011;38352;53.244;6.594;2023-08-21T04:22:26;7.03;;;3.05;;
52432;SDS011;38352;53.244;6.594;2023-08-21T04:24:52;5.32;;;3.10;;
52432;SDS011;38352;53.244;6.594;2023-08-21T04:27:18;6.75;;;2.97;;
52432;SDS011;38352;53.244;6.594;2023-08-21T04:29:44;4.78;;;2.65;;
52432;SDS011;38352;53.244;6.594;2023-08-21T04:32:10;6.88;;;3.25;;
52432;SDS011;38352;53.244;6.594;2023-08-21T04:34:37;4.95;;;2.58;;
52432;SDS011;38352;53.244;6.594;2023-08-21T04:37:03;5.60;;;2.70;;
52432;SDS011;38352;53.244;6.594;2023-08-21T04:39:30;6.60;;;2.80;;
52432;SDS011;38352;53.244;6.594;2023-08-21T04:41:56;7.38;;;2.75;;
52432;SDS011;38352;53.244;6.594;2023-08-21T04:44:22;6.47;;;3.20;;
52432;SDS011;38352;53.244;6.594;2023-08-21T04:46:48;6.05;;;3.03;;
52432;SDS011;38352;53.244;6.594;2023-08-21T04:49:15;6.45;;;3.00;;
52432;SDS011;38352;53.244;6.594;2023-08-21T04:51:41;6.10;;;2.88;;
52432;SDS011;38352;53.244;6.594;2023-08-21T04:54:08;7.47;;;3.45;;
52432;SDS011;38352;53.244;6.594;2023-08-21T04:56:34;8.45;;;3.33;;
52432;SDS011;38352;53.244;6.594;2023-08-21T04:59:00;6.68;;;2.70;;
52432;SDS011;38352;53.244;6.594;2023-08-21T05:01:26;8.02;;;3.72;;
52432;SDS011;38352;53.244;6.594;2023-08-21T05:03:52;5.05;;;2.85;;
52432;SDS011;38352;53.244;6.594;2023-08-21T05:06:19;7.82;;;2.70;;
52432;SDS011;38352;53.244;6.594;2023-08-21T05:08:45;6.60;;;3.20;;
52432;SDS011;38352;53.244;6.594;2023-08-21T05:11:12;6.18;;;2.38;;
52432;SDS011;38352;53.244;6.594;2023-08-21T05:13:38;6.10;;;3.67;;
52432;SDS011;38352;53.244;6.594;2023-08-21T05:16:04;6.22;;;3.05;;
52432;SDS011;38352;53.244;6.594;2023-08-21T05:18:30;7.13;;;3.55;;
52432;SDS011;38352;53.244;6.594;2023-08-21T05:20:56;8.70;;;3.67;;
52432;SDS011;38352;53.244;6.594;2023-08-21T05:23:22;7.85;;;3.38;;
52432;SDS011;38352;53.244;6.594;2023-08-21T05:25:48;10.80;;;3.20;;
52432;SDS011;38352;53.244;6.594;2023-08-21T05:28:15;4.97;;;2.92;;
52432;SDS011;38352;53.244;6.594;2023-08-21T05:30:41;7.32;;;3.42;;
52432;SDS011;38352;53.244;6.594;2023-08-21T05:33:07;4.88;;;2.85;;
52432;SDS011;38352;53.244;6.594;2023-08-21T05:35:33;6.80;;;3.22;;
52432;SDS011;38352;53.244;6.594;2023-08-21T05:38:01;6.93;;;3.63;;
52432;SDS011;38352;53.244;6.594;2023-08-21T05:40:27;10.05;;;3.35;;
52432;SDS011;38352;53.244;6.594;2023-08-21T05:42:57;7.60;;;3.60;;
52432;SDS011;38352;53.244;6.594;2023-08-21T05:45:23;6.63;;;3.33;;
52432;SDS011;38352;53.244;6.594;2023-08-21T05:47:49;6.47;;;3.03;;
52432;SDS011;38352;53.244;6.594;2023-08-21T05:50:15;6.90;;;3.35;;
52432;SDS011;38352;53.244;6.594;2023-08-21T05:52:41;7.38;;;3.05;;
52432;SDS011;38352;53.244;6.594;2023-08-21T05:55:07;8.35;;;3.00;;
52432;SDS011;38352;53.244;6.594;2023-08-21T05:57:34;10.77;;;3.65;;
52432;SDS011;38352;53.244;6.594;2023-08-21T06:00:00;9.65;;;3.33;;
52432;SDS011;38352;53.244;6.594;2023-08-21T06:02:26;8.68;;;3.63;;
52432;SDS011;38352;53.244;6.594;2023-08-21T06:04:53;8.45;;;3.13;;
52432;SDS011;38352;53.244;6.594;2023-08-21T06:07:19;5.93;;;3.05;;
52432;SDS011;38352;53.244;6.594;2023-08-21T06:09:45;7.90;;;3.45;;
52432;SDS011;38352;53.244;6.594;2023-08-21T06:12:11;8.00;;;3.38;;
52432;SDS011;38352;53.244;6.594;2023-08-21T06:14:37;8.35;;;3.25;;
52432;SDS011;38352;53.244;6.594;2023-08-21T06:17:04;9.55;;;3.65;;
52432;SDS011;38352;53.244;6.594;2023-08-21T06:19:30;8.57;;;3.53;;
52432;SDS011;38352;53.244;6.594;2023-08-21T06:21:57;12.10;;;3.60;;
52432;SDS011;38352;53.244;6.594;2023-08-21T06:24:23;10.55;;;4.15;;
52432;SDS011;38352;53.244;6.594;2023-08-21T06:26:50;11.60;;;3.80;;
52432;SDS011;38352;53.244;6.594;2023-08-21T06:29:17;13.75;;;4.47;;
52432;SDS011;38352;53.244;6.594;2023-08-21T06:31:45;11.93;;;3.30;;
52432;SDS011;38352;53.244;6.594;2023-08-21T06:34:11;7.35;;;3.15;;
52432;SDS011;38352;53.244;6.594;2023-08-21T06:36:38;6.90;;;2.72;;
52432;SDS011;38352;53.244;6.594;2023-08-21T06:39:04;11.02;;;2.80;;
52432;SDS011;38352;53.244;6.594;2023-08-21T06:41:31;6.60;;;2.60;;
52432;SDS011;38352;53.244;6.594;2023-08-21T06:43:57;9.50;;;2.25;;
52432;SDS011;38352;53.244;6.594;2023-08-21T06:46:23;10.80;;;2.22;;
52432;SDS011;38352;53.244;6.594;2023-08-21T06:48:49;10.48;;;2.80;;
52432;SDS011;38352;53.244;6.594;2023-08-21T06:51:16;7.00;;;2.38;;
52432;SDS011;38352;53.244;6.594;2023-08-21T06:53:42;9.93;;;2.60;;
52432;SDS011;38352;53.244;6.594;2023-08-21T06:56:08;4.22;;;1.80;;
52432;SDS011;38352;53.244;6.594;2023-08-21T06:58:34;5.85;;;2.00;;
52432;SDS011;38352;53.244;6.594;2023-08-21T07:01:00;5.95;;;2.28;;
52432;SDS011;38352;53.244;6.594;2023-08-21T07:03:26;7.00;;;1.90;;
52432;SDS011;38352;53.244;6.594;2023-08-21T07:05:53;6.97;;;2.15;;
52432;SDS011;38352;53.244;6.594;2023-08-21T07:08:20;8.18;;;1.90;;
52432;SDS011;38352;53.244;6.594;2023-08-21T07:10:46;9.80;;;2.10;;
52432;SDS011;38352;53.244;6.594;2023-08-21T07:13:12;5.88;;;2.13;;
52432;SDS011;38352;53.244;6.594;2023-08-21T07:15:38;8.10;;;2.00;;
52432;SDS011;38352;53.244;6.594;2023-08-21T07:18:04;8.50;;;1.85;;
52432;SDS011;38352;53.244;6.594;2023-08-21T07:20:31;4.28;;;1.70;;
52432;SDS011;38352;53.244;6.594;2023-08-21T07:22:57;5.22;;;1.80;;
52432;SDS011;38352;53.244;6.594;2023-08-21T07:25:23;5.03;;;1.65;;
52432;SDS011;38352;53.244;6.594;2023-08-21T07:27:50;8.20;;;1.90;;
52432;SDS011;38352;53.244;6.594;2023-08-21T07:30:18;5.88;;;1.77;;
52432;SDS011;38352;53.244;6.594;2023-08-21T07:32:45;6.88;;;2.05;;
52432;SDS011;38352;53.244;6.594;2023-08-21T07:35:11;6.47;;;1.90;;
52432;SDS011;38352;53.244;6.594;2023-08-21T07:37:37;6.63;;;1.85;;
52432;SDS011;38352;53.244;6.594;2023-08-21T07:40:06;5.35;;;1.83;;
52432;SDS011;38352;53.244;6.594;2023-08-21T07:42:32;6.95;;;1.70;;
52432;SDS011;38352;53.244;6.594;2023-08-21T07:44:58;3.70;;;1.83;;
52432;SDS011;38352;53.244;6.594;2023-08-21T07:47:26;5.32;;;1.70;;
52432;SDS011;38352;53.244;6.594;2023-08-21T07:49:52;5.35;;;2.08;;
52432;SDS011;38352;53.244;6.594;2023-08-21T07:52:19;4.30;;;1.95;;
52432;SDS011;38352;53.244;6.594;2023-08-21T07:54:45;4.28;;;1.48;;
52432;SDS011;38352;53.244;6.594;2023-08-21T07:57:11;4.53;;;1.75;;
52432;SDS011;38352;53.244;6.594;2023-08-21T07:59:38;6.40;;;2.08;;
52432;SDS011;38352;53.244;6.594;2023-08-21T08:02:04;3.90;;;1.83;;
52432;SDS011;38352;53.244;6.594;2023-08-21T08:04:30;5.70;;;1.77;;
52432;SDS011;38352;53.244;6.594;2023-08-21T08:06:56;3.72;;;1.60;;
52432;SDS011;38352;53.244;6.594;2023-08-21T08:09:22;6.70;;;2.00;;
52432;SDS011;38352;53.244;6.594;2023-08-21T08:11:48;5.88;;;2.17;;
52432;SDS011;38352;53.244;6.594;2023-08-21T08:14:14;3.53;;;1.73;;
52432;SDS011;38352;53.244;6.594;2023-08-21T08:16:40;5.65;;;1.85;;
52432;SDS011;38352;53.244;6.594;2023-08-21T08:19:06;5.18;;;1.60;;
52432;SDS011;38352;53.244;6.594;2023-08-21T08:21:33;5.63;;;1.70;;
52432;SDS011;38352;53.244;6.594;2023-08-21T08:23:59;5.22;;;1.77;;
52432;SDS011;38352;53.244;6.594;2023-08-21T08:26:25;4.07;;;1.70;;
52432;SDS011;38352;53.244;6.594;2023-08-21T08:28:51;6.20;;;2.67;;
52432;SDS011;38352;53.244;6.594;2023-08-21T08:31:17;5.53;;;1.60;;
52432;SDS011;38352;53.244;6.594;2023-08-21T08:33:44;5.80;;;1.67;;
52432;SDS011;38352;53.244;6.594;2023-08-21T08:36:10;4.40;;;2.00;;
52432;SDS011;38352;53.244;6.594;2023-08-21T08:38:36;5.68;;;2.03;;
52432;SDS011;38352;53.244;6.594;2023-08-21T08:41:04;3.75;;;1.58;;
52432;SDS011;38352;53.244;6.594;2023-08-21T08:43:32;6.15;;;1.60;;
52432;SDS011;38352;53.244;6.594;2023-08-21T08:46:00;3.70;;;1.58;;
52432;SDS011;38352;53.244;6.594;2023-08-21T08:48:27;4.25;;;1.88;;
52432;SDS011;38352;53.244;6.594;2023-08-21T08:50:54;5.78;;;1.70;;
52432;SDS011;38352;53.244;6.594;2023-08-21T08:53:20;3.92;;;1.50;;
52432;SDS011;38352;53.244;6.594;2023-08-21T08:55:46;4.93;;;1.60;;
52432;SDS011;38352;53.244;6.594;2023-08-21T08:58:12;3.60;;;1.50;;
52432;SDS011;38352;53.244;6.594;2023-08-21T09:00:38;2.92;;;1.58;;
52432;SDS011;38352;53.244;6.594;2023-08-21T09:03:04;5.60;;;1.65;;
52432;SDS011;38352;53.244;6.594;2023-08-21T09:05:30;2.97;;;1.38;;
52432;SDS011;38352;53.244;6.594;2023-08-21T09:08:30;4.30;;;1.60;;
52432;SDS011;38352;53.244;6.594;2023-08-21T09:10:49;3.50;;;1.50;;
52432;SDS011;38352;53.244;6.594;2023-08-21T09:13:16;6.75;;;1.85;;
52432;SDS011;38352;53.244;6.594;2023-08-21T09:15:46;3.95;;;1.45;;
52432;SDS011;38352;53.244;6.594;2023-08-21T09:18:12;4.78;;;1.52;;
52432;SDS011;38352;53.244;6.594;2023-08-21T09:20:40;3.17;;;1.48;;
52432;SDS011;38352;53.244;6.594;2023-08-21T09:23:06;4.30;;;1.45;;
52432;SDS011;38352;53.244;6.594;2023-08-21T09:25:33;4.82;;;1.40;;
52432;SDS011;38352;53.244;6.594;2023-08-21T09:27:59;6.55;;;1.40;;
52432;SDS011;38352;53.244;6.594;2023-08-21T09:30:26;5.70;;;1.70;;
52432;SDS011;38352;53.244;6.594;2023-08-21T09:32:56;5.75;;;1.83;;
52432;SDS011;38352;53.244;6.594;2023-08-21T09:35:22;4.93;;;1.63;;
52432;SDS011;38352;53.244;6.594;2023-08-21T09:37:49;3.90;;;1.60;;
52432;SDS011;38352;53.244;6.594;2023-08-21T09:40:18;3.95;;;1.67;;
52432;SDS011;38352;53.244;6.594;2023-08-21T09:42:44;5.78;;;1.30;;
52432;SDS011;38352;53.244;6.594;2023-08-21T09:45:10;4.88;;;1.30;;
52432;SDS011;38352;53.244;6.594;2023-08-21T09:47:37;6.80;;;2.88;;
52432;SDS011;38352;53.244;6.594;2023-08-21T09:50:04;4.57;;;1.60;;
52432;SDS011;38352;53.244;6.594;2023-08-21T09:52:31;4.57;;;1.30;;
52432;SDS011;38352;53.244;6.594;2023-08-21T09:54:57;3.53;;;1.48;;
52432;SDS011;38352;53.244;6.594;2023-08-21T09:57:23;4.43;;;1.80;;
52432;SDS011;38352;53.244;6.594;2023-08-21T09:59:51;6.00;;;1.50;;
52432;SDS011;38352;53.244;6.594;2023-08-21T10:02:18;6.18;;;1.73;;
52432;SDS011;38352;53.244;6.594;2023-08-21T10:04:44;4.82;;;1.40;;
52432;SDS011;38352;53.244;6.594;2023-08-21T10:07:11;3.75;;;2.10;;
52432;SDS011;38352;53.244;6.594;2023-08-21T10:09:39;9.60;;;1.83;;
52432;SDS011;38352;53.244;6.594;2023-08-21T10:12:06;3.75;;;1.58;;
52432;SDS011;38352;53.244;6.594;2023-08-21T10:14:34;6.68;;;1.70;;
52432;SDS011;38352;53.244;6.594;2023-08-21T10:17:01;7.18;;;1.40;;
52432;SDS011;38352;53.244;6.594;2023-08-21T10:19:31;4.70;;;2.00;;
52432;SDS011;38352;53.244;6.594;2023-08-21T10:21:57;2.30;;;1.25;;
52432;SDS011;38352;53.244;6.594;2023-08-21T10:24:27;4.07;;;1.30;;
52432;SDS011;38352;53.244;6.594;2023-08-21T10:26:54;2.85;;;1.50;;
52432;SDS011;38352;53.244;6.594;2023-08-21T10:29:23;3.60;;;1.45;;
52432;SDS011;38352;53.244;6.594;2023-08-21T10:31:58;1.77;;;1.13;;
52432;SDS011;38352;53.244;6.594;2023-08-21T10:34:25;3.30;;;1.00;;
52432;SDS011;38352;53.244;6.594;2023-08-21T10:39:25;4.68;;;1.80;;
52432;SDS011;38352;53.244;6.594;2023-08-21T10:42:05;3.63;;;1.58;;
52432;SDS011;38352;53.244;6.594;2023-08-21T10:49:47;4.00;;;1.48;;
52432;SDS011;38352;53.244;6.594;2023-08-21T10:52:14;3.97;;;1.38;;
52432;SDS011;38352;53.244;6.594;2023-08-21T10:54:44;6.55;;;1.60;;
52432;SDS011;38352;53.244;6.594;2023-08-21T10:57:10;4.85;;;1.48;;
52432;SDS011;38352;53.244;6.594;2023-08-21T10:59:36;2.22;;;1.35;;
52432;SDS011;38352;53.244;6.594;2023-08-21T11:02:02;4.47;;;1.88;;
52432;SDS011;38352;53.244;6.594;2023-08-21T11:04:28;4.00;;;1.40;;
52432;SDS011;38352;53.244;6.594;2023-08-21T11:06:54;3.20;;;1.70;;
52432;SDS011;38352;53.244;6.594;2023-08-21T11:09:22;3.28;;;1.58;;
52432;SDS011;38352;53.244;6.594;2023-08-21T11:11:48;6.13;;;1.63;;
52432;SDS011;38352;53.244;6.594;2023-08-21T11:14:14;5.47;;;1.65;;
52432;SDS011;38352;53.244;6.594;2023-08-21T11:16:40;8.05;;;2.00;;
52432;SDS011;38352;53.244;6.594;2023-08-21T11:19:07;4.00;;;1.67;;
52432;SDS011;38352;53.244;6.594;2023-08-21T11:21:33;3.17;;;1.77;;
52432;SDS011;38352;53.244;6.594;2023-08-21T11:23:59;4.45;;;1.67;;
52432;SDS011;38352;53.244;6.594;2023-08-21T11:26:25;4.70;;;1.60;;
52432;SDS011;38352;53.244;6.594;2023-08-21T11:28:51;3.58;;;1.73;;
52432;SDS011;38352;53.244;6.594;2023-08-21T11:31:17;4.45;;;1.73;;
52432;SDS011;38352;53.244;6.594;2023-08-21T11:33:49;3.70;;;1.40;;
52432;SDS011;38352;53.244;6.594;2023-08-21T11:36:15;3.95;;;1.90;;
52432;SDS011;38352;53.244;6.594;2023-08-21T11:38:41;3.65;;;1.30;;
52432;SDS011;38352;53.244;6.594;2023-08-21T11:41:07;6.68;;;1.65;;
52432;SDS011;38352;53.244;6.594;2023-08-21T11:43:36;4.53;;;1.63;;
52432;SDS011;38352;53.244;6.594;2023-08-21T11:46:06;5.55;;;1.70;;
52432;SDS011;38352;53.244;6.594;2023-08-21T11:48:33;5.07;;;1.70;;
52432;SDS011;38352;53.244;6.594;2023-08-21T11:50:59;7.95;;;1.70;;
52432;SDS011;38352;53.244;6.594;2023-08-21T11:53:39;4.68;;;2.00;;
52432;SDS011;38352;53.244;6.594;2023-08-21T11:56:09;5.18;;;1.70;;
52432;SDS011;38352;53.244;6.594;2023-08-21T11:58:43;3.80;;;2.03;;
52432;SDS011;38352;53.244;6.594;2023-08-21T12:01:20;7.13;;;1.70;;
52432;SDS011;38352;53.244;6.594;2023-08-21T12:03:46;5.25;;;1.90;;
52432;SDS011;38352;53.244;6.594;2023-08-21T12:06:21;4.78;;;1.75;;
52432;SDS011;38352;53.244;6.594;2023-08-21T12:08:47;6.55;;;1.67;;
52432;SDS011;38352;53.244;6.594;2023-08-21T12:11:13;3.45;;;1.63;;
52432;SDS011;38352;53.244;6.594;2023-08-21T12:13:39;5.82;;;1.73;;
52432;SDS011;38352;53.244;6.594;2023-08-21T12:16:05;5.32;;;1.80;;
52432;SDS011;38352;53.244;6.594;2023-08-21T12:18:31;8.75;;;2.35;;
52432;SDS011;38352;53.244;6.594;2023-08-21T12:20:58;8.65;;;2.90;;
52432;SDS011;38352;53.244;6.594;2023-08-21T12:23:24;6.60;;;2.78;;
52432;SDS011;38352;53.244;6.594;2023-08-21T12:25:50;9.88;;;2.70;;
52432;SDS011;38352;53.244;6.594;2023-08-21T12:28:16;6.47;;;1.50;;
52432;SDS011;38352;53.244;6.594;2023-08-21T12:30:42;5.28;;;1.60;;
52432;SDS011;38352;53.244;6.594;2023-08-21T12:33:08;3.40;;;1.65;;
52432;SDS011;38352;53.244;6.594;2023-08-21T12:35:34;4.57;;;1.70;;
52432;SDS011;38352;53.244;6.594;2023-08-21T12:38:00;5.57;;;1.63;;
52432;SDS011;38352;53.244;6.594;2023-08-21T12:40:30;7.05;;;1.90;;
52432;SDS011;38352;53.244;6.594;2023-08-21T12:42:57;8.32;;;1.90;;
52432;SDS011;38352;53.244;6.594;2023-08-21T12:45:23;7.50;;;2.10;;
52432;SDS011;38352;53.244;6.594;2023-08-21T12:47:49;5.63;;;1.80;;
52432;SDS011;38352;53.244;6.594;2023-08-21T12:50:15;5.32;;;1.60;;
52432;SDS011;38352;53.244;6.594;2023-08-21T12:52:41;6.55;;;2.03;;
52432;SDS011;38352;53.244;6.594;2023-08-21T12:55:07;8.38;;;2.72;;
52432;SDS011;38352;53.244;6.594;2023-08-21T12:57:34;6.53;;;2.10;;
52432;SDS011;38352;53.244;6.594;2023-08-21T13:00:00;6.60;;;1.85;;
52432;SDS011;38352;53.244;6.594;2023-08-21T13:02:26;5.63;;;1.95;;
52432;SDS011;38352;53.244;6.594;2023-08-21T13:04:52;5.47;;;1.70;;
52432;SDS011;38352;53.244;6.594;2023-08-21T13:07:19;4.40;;;1.77;;
52432;SDS011;38352;53.244;6.594;2023-08-21T13:09:45;6.05;;;1.77;;
52432;SDS011;38352;53.244;6.594;2023-08-21T13:12:11;5.63;;;2.03;;
52432;SDS011;38352;53.244;6.594;2023-08-21T13:14:37;6.85;;;2.05;;
52432;SDS011;38352;53.244;6.594;2023-08-21T13:17:03;4.65;;;1.70;;
52432;SDS011;38352;53.244;6.594;2023-08-21T13:19:29;5.97;;;1.98;;
52432;SDS011;38352;53.244;6.594;2023-08-21T13:21:55;5.72;;;1.48;;
52432;SDS011;38352;53.244;6.594;2023-08-21T13:24:21;5.45;;;1.58;;
52432;SDS011;38352;53.244;6.594;2023-08-21T13:26:47;4.35;;;1.60;;
52432;SDS011;38352;53.244;6.594;2023-08-21T13:29:13;4.97;;;1.55;;
52432;SDS011;38352;53.244;6.594;2023-08-21T13:31:39;5.13;;;2.03;;
52432;SDS011;38352;53.244;6.594;2023-08-21T13:34:06;8.57;;;2.50;;
52432;SDS011;38352;53.244;6.594;2023-08-21T13:36:32;4.88;;;1.50;;
52432;SDS011;38352;53.244;6.594;2023-08-21T13:38:58;5.05;;;1.30;;
52432;SDS011;38352;53.244;6.594;2023-08-21T13:41:24;3.60;;;1.08;;
52432;SDS011;38352;53.244;6.594;2023-08-21T13:43:50;4.10;;;1.20;;
52432;SDS011;38352;53.244;6.594;2023-08-21T13:46:16;5.28;;;1.10;;
52432;SDS011;38352;53.244;6.594;2023-08-21T13:48:42;3.83;;;1.40;;
52432;SDS011;38352;53.244;6.594;2023-08-21T13:51:08;5.18;;;1.25;;
52432;SDS011;38352;53.244;6.594;2023-08-21T13:53:34;3.47;;;1.17;;
52432;SDS011;38352;53.244;6.594;2023-08-21T13:56:00;2.75;;;1.27;;
52432;SDS011;38352;53.244;6.594;2023-08-21T13:58:27;4.35;;;1.27;;
52432;SDS011;38352;53.244;6.594;2023-08-21T14:00:53;7.85;;;1.58;;
52432;SDS011;38352;53.244;6.594;2023-08-21T14:03:23;3.45;;;1.63;;
52432;SDS011;38352;53.244;6.594;2023-08-21T14:05:50;6.50;;;1.92;;
52432;SDS011;38352;53.244;6.594;2023-08-21T14:08:16;6.13;;;1.35;;
52432;SDS011;38352;53.244;6.594;2023-08-21T14:10:42;5.20;;;1.17;;
52432;SDS011;38352;53.244;6.594;2023-08-21T14:13:08;4.28;;;1.33;;
52432;SDS011;38352;53.244;6.594;2023-08-21T14:15:34;3.22;;;1.25;;
52432;SDS011;38352;53.244;6.594;2023-08-21T14:18:00;2.63;;;1.00;;
52432;SDS011;38352;53.244;6.594;2023-08-21T14:20:27;2.72;;;0.93;;
52432;SDS011;38352;53.244;6.594;2023-08-21T14:22:54;4.60;;;1.38;;
52432;SDS011;38352;53.244;6.594;2023-08-21T14:25:20;3.15;;;1.33;;
52432;SDS011;38352;53.244;6.594;2023-08-21T14:27:47;3.38;;;0.95;;
52432;SDS011;38352;53.244;6.594;2023-08-21T14:30:16;4.32;;;1.35;;
52432;SDS011;38352;53.244;6.594;2023-08-21T14:32:42;3.33;;;1.25;;
52432;SDS011;38352;53.244;6.594;2023-08-21T14:35:08;2.78;;;1.10;;
52432;SDS011;38352;53.244;6.594;2023-08-21T14:37:35;2.95;;;0.90;;
52432;SDS011;38352;53.244;6.594;2023-08-21T14:40:01;3.08;;;0.90;;
52432;SDS011;38352;53.244;6.594;2023-08-21T14:42:32;4.25;;;1.10;;
52432;SDS011;38352;53.244;6.594;2023-08-21T14:44:58;3.45;;;1.00;;
52432;SDS011;38352;53.244;6.594;2023-08-21T14:47:25;2.58;;;1.10;;
52432;SDS011;38352;53.244;6.594;2023-08-21T14:49:51;3.30;;;1.25;;
52432;SDS011;38352;53.244;6.594;2023-08-21T14:52:17;3.33;;;1.23;;